America Dourada, Brazil
Current Conditions -  °F | °C
As of 12:00 PM on Friday 19 Dec 2014 (Local Time) from SBPL Reporting Station
Broken Clouds Broken Clouds  
Wind Chill: 90°   Ceiling: 3300
Heat Index: 98°   Visibility: 6mi
Dew Point: 73°   Wind: 12mph
Humidity: 59%   Direction: 50°NE
Pressure: 29.88"   Gusts: NA
Location:  11.46°S, 41.44°W
Report Text: SBPL 191500Z 05010KT 9999 BKN033 SCT080 32/23 Q1012
Loading
Personal Weather Stations






























Interactive Weather Map New forecast layout! Learn more

10-Day Weather Forecast

Advertisements
Track Severe Weather on mobile